Time;durP1;ratioP1;P1;durP2;ratioP2;P2;SDS_P1;SDS_P2;PMS_P1;PMS_P2;Temp;Humidity;BMP_temperature;BMP_pressure;BME280_temperature;BME280_humidity;BME280_pressure;Samples;Min_cycle;Max_cycle;Signal;HPM_P1;HPM_P2
2021/03/29 00:00:59;;;;;;;8.60;4.63;;;;;;;;;;2042752;29;20182;-54
2021/03/29 00:01:59;;;;;;;6.68;4.25;;;;;;;;;;2048929;29;20628;-57
2021/03/29 00:03:00;;;;;;;7.20;4.70;;;;;;;;;;2040275;29;20207;-53
2021/03/29 00:04:00;;;;;;;5.20;4.40;;;;;;;;;;2040487;29;20174;-57
2021/03/29 00:05:01;;;;;;;6.93;4.45;;;;;;;;;;2048283;29;20245;-55
2021/03/29 00:06:01;;;;;;;8.23;4.80;;;;;;;;;;2044150;29;20187;-56
2021/03/29 00:07:02;;;;;;;9.52;4.85;;;;;;;;;;2040304;29;20251;-55
2021/03/29 00:08:07;;;;;;;9.80;4.60;;;;;;;;;;2033085;29;20180;-54
2021/03/29 00:09:08;;;;;;;6.45;5.00;;;;;;;;;;2040867;29;20203;-53
2021/03/29 00:10:09;;;;;;;6.22;4.68;;;;;;;;;;2049402;28;20265;-58
2021/03/29 00:11:10;;;;;;;7.57;4.03;;;;;;;;;;2048801;28;20589;-57
2021/03/29 00:12:12;;;;;;;6.63;4.53;;;;;;;;;;2047895;28;20171;-55
2021/03/29 00:13:13;;;;;;;11.52;4.72;;;;;;;;;;2040090;29;20560;-53
2021/03/29 00:14:13;;;;;;;6.85;4.25;;;;;;;;;;2040456;29;20180;-58
2021/03/29 00:15:18;;;;;;;9.90;4.93;;;;;;;;;;2046045;29;20179;-55
2021/03/29 00:16:20;;;;;;;6.72;4.45;;;;;;;;;;2047156;29;20182;-57
2021/03/29 00:17:20;;;;;;;8.45;4.57;;;;;;;;;;2045350;29;20273;-55
2021/03/29 00:18:21;;;;;;;9.57;4.57;;;;;;;;;;2048635;29;20183;-55
2021/03/29 00:19:21;;;;;;;9.98;4.47;;;;;;;;;;2048421;29;20175;-56
2021/03/29 00:20:23;;;;;;;7.88;4.43;;;;;;;;;;2047671;29;20245;-56
2021/03/29 00:21:23;;;;;;;7.53;4.78;;;;;;;;;;2048281;28;20191;-56
2021/03/29 00:22:24;;;;;;;6.00;4.57;;;;;;;;;;2048777;28;20206;-54
2021/03/29 00:23:24;;;;;;;6.95;4.82;;;;;;;;;;2044747;28;20558;-56
2021/03/29 00:24:24;;;;;;;8.25;4.40;;;;;;;;;;2046043;29;20198;-56
2021/03/29 00:25:26;;;;;;;8.25;4.28;;;;;;;;;;2048282;29;20302;-56
2021/03/29 00:26:26;;;;;;;7.53;4.55;;;;;;;;;;2040948;29;20577;-56
2021/03/29 00:27:26;;;;;;;10.80;4.97;;;;;;;;;;2040210;29;20208;-55
2021/03/29 00:28:27;;;;;;;10.50;4.88;;;;;;;;;;2048520;29;20252;-53
2021/03/29 00:29:27;;;;;;;9.27;4.50;;;;;;;;;;2048199;28;20189;-58
2021/03/29 00:30:33;;;;;;;16.65;4.95;;;;;;;;;;2048759;28;20257;-57
2021/03/29 00:31:33;;;;;;;7.53;4.85;;;;;;;;;;2047834;29;20209;-55
2021/03/29 00:32:34;;;;;;;8.82;4.97;;;;;;;;;;2046651;28;20237;-58
2021/03/29 00:33:35;;;;;;;6.90;4.28;;;;;;;;;;2048298;29;20183;-57
2021/03/29 00:34:35;;;;;;;5.80;4.53;;;;;;;;;;2048823;29;20182;-55
2021/03/29 00:35:37;;;;;;;9.30;4.70;;;;;;;;;;2048390;29;20242;-56
2021/03/29 00:36:38;;;;;;;9.73;4.57;;;;;;;;;;2048138;29;20214;-55
2021/03/29 00:37:39;;;;;;;9.13;4.63;;;;;;;;;;2052684;28;20198;-59
2021/03/29 00:38:41;;;;;;;7.75;4.60;;;;;;;;;;2050812;29;20562;-58
2021/03/29 00:39:41;;;;;;;8.40;4.50;;;;;;;;;;2047806;29;20195;-57
2021/03/29 00:40:43;;;;;;;8.18;4.45;;;;;;;;;;2049072;29;20278;-54
2021/03/29 00:41:44;;;;;;;8.00;4.55;;;;;;;;;;2048115;29;20167;-57
2021/03/29 00:42:45;;;;;;;7.18;5.00;;;;;;;;;;2037852;29;20263;-57
2021/03/29 00:43:46;;;;;;;6.65;4.72;;;;;;;;;;2041672;29;20214;-56
2021/03/29 00:44:47;;;;;;;8.43;4.68;;;;;;;;;;2039976;29;20282;-59
2021/03/29 00:45:48;;;;;;;9.88;5.05;;;;;;;;;;2049455;29;20229;-57
2021/03/29 00:46:48;;;;;;;10.25;4.43;;;;;;;;;;2048493;29;20175;-53
2021/03/29 00:47:50;;;;;;;10.13;4.88;;;;;;;;;;2040650;29;20156;-56
2021/03/29 00:48:51;;;;;;;9.48;4.80;;;;;;;;;;2026819;29;20861;-55
2021/03/29 00:49:51;;;;;;;10.18;4.95;;;;;;;;;;2040241;29;20175;-55
2021/03/29 00:50:59;;;;;;;9.38;4.70;;;;;;;;;;2048051;29;20174;-55
2021/03/29 00:52:00;;;;;;;5.82;4.50;;;;;;;;;;2039340;29;20656;-56
2021/03/29 00:53:01;;;;;;;15.45;5.05;;;;;;;;;;2035096;29;20180;-55
2021/03/29 00:54:02;;;;;;;5.22;4.72;;;;;;;;;;2047582;29;20178;-58
2021/03/29 00:55:03;;;;;;;9.50;4.05;;;;;;;;;;2044730;29;20183;-54
2021/03/29 00:56:03;;;;;;;12.63;5.00;;;;;;;;;;2049110;29;20179;-55
2021/03/29 00:57:04;;;;;;;8.70;4.20;;;;;;;;;;2048425;28;20281;-57
2021/03/29 00:58:05;;;;;;;9.07;5.30;;;;;;;;;;2049136;28;20682;-54
2021/03/29 00:59:07;;;;;;;7.88;4.22;;;;;;;;;;2048252;29;20182;-57
2021/03/29 01:00:19;;;;;;;10.30;4.70;;;;;;;;;;2040629;29;20199;-56
2021/03/29 01:01:20;;;;;;;7.65;4.40;;;;;;;;;;2037559;29;20183;-58
2021/03/29 01:02:20;;;;;;;10.13;4.80;;;;;;;;;;2039326;29;20187;-57
2021/03/29 01:03:31;;;;;;;7.88;4.95;;;;;;;;;;2030619;29;20268;-57
2021/03/29 01:04:31;;;;;;;7.38;5.07;;;;;;;;;;2040044;29;20171;-54
2021/03/29 01:05:32;;;;;;;10.73;4.85;;;;;;;;;;2038614;29;20704;-56
2021/03/29 01:06:34;;;;;;;7.57;4.13;;;;;;;;;;2031995;29;20233;-58
2021/03/29 01:07:34;;;;;;;6.47;4.60;;;;;;;;;;2040825;29;20227;-56
2021/03/29 01:08:36;;;;;;;9.75;4.97;;;;;;;;;;2037551;29;20180;-54
2021/03/29 01:09:36;;;;;;;11.18;4.88;;;;;;;;;;2032842;29;20183;-58
2021/03/29 01:10:36;;;;;;;9.50;4.82;;;;;;;;;;2048125;29;20624;-56
2021/03/29 01:11:42;;;;;;;8.57;5.18;;;;;;;;;;2048839;29;20167;-56
2021/03/29 01:12:43;;;;;;;11.85;5.50;;;;;;;;;;2040418;29;20183;-56
2021/03/29 01:13:48;;;;;;;12.85;5.53;;;;;;;;;;2040275;29;20743;-54
2021/03/29 01:14:50;;;;;;;8.65;4.90;;;;;;;;;;2040120;29;20191;-59
2021/03/29 01:15:51;;;;;;;12.55;4.85;;;;;;;;;;2040530;29;20259;-56
2021/03/29 01:16:55;;;;;;;11.80;5.82;;;;;;;;;;2041170;29;20223;-55
2021/03/29 01:17:56;;;;;;;7.50;4.85;;;;;;;;;;2048128;29;20277;-55
2021/03/29 01:18:58;;;;;;;11.43;4.93;;;;;;;;;;2048504;28;20226;-58
2021/03/29 01:20:01;;;;;;;9.95;5.50;;;;;;;;;;2048183;29;20170;-58
2021/03/29 01:21:20;;;;;;;10.15;5.38;;;;;;;;;;2045870;29;20171;-56
2021/03/29 01:22:22;;;;;;;13.15;5.60;;;;;;;;;;2048273;29;20166;-53
2021/03/29 01:23:24;;;;;;;10.25;5.47;;;;;;;;;;2048995;29;20273;-56
2021/03/29 01:24:39;;;;;;;8.02;5.45;;;;;;;;;;2038786;29;20512;-53
2021/03/29 01:25:44;;;;;;;9.07;5.05;;;;;;;;;;2042601;29;20787;-58
2021/03/29 01:26:46;;;;;;;8.90;5.63;;;;;;;;;;2052756;29;20167;-57
2021/03/29 01:27:49;;;;;;;11.65;6.03;;;;;;;;;;2047043;29;20231;-58
2021/03/29 01:28:50;;;;;;;9.30;5.45;;;;;;;;;;2040030;29;20184;-60
2021/03/29 01:29:51;;;;;;;15.20;6.45;;;;;;;;;;2039659;29;20206;-61
2021/03/29 01:30:52;;;;;;;10.52;5.88;;;;;;;;;;2044046;29;20179;-57
2021/03/29 01:31:52;;;;;;;9.48;5.75;;;;;;;;;;2051235;29;20283;-56
2021/03/29 01:32:53;;;;;;;12.70;5.97;;;;;;;;;;2043274;29;20188;-56
2021/03/29 01:33:55;;;;;;;8.85;6.18;;;;;;;;;;2041112;29;20243;-58
2021/03/29 01:34:56;;;;;;;9.73;6.15;;;;;;;;;;2051685;29;20174;-57
2021/03/29 01:35:59;;;;;;;14.93;6.18;;;;;;;;;;2051152;28;20179;-59
2021/03/29 01:36:59;;;;;;;9.73;5.40;;;;;;;;;;2044314;29;20168;-59
2021/03/29 01:38:00;;;;;;;10.68;6.18;;;;;;;;;;2043724;29;20344;-57
2021/03/29 01:39:01;;;;;;;10.50;6.32;;;;;;;;;;2053336;29;20185;-57
2021/03/29 01:40:02;;;;;;;11.80;6.30;;;;;;;;;;2044722;29;20186;-59
2021/03/29 01:41:03;;;;;;;9.88;6.03;;;;;;;;;;2044164;29;20187;-57
2021/03/29 01:42:04;;;;;;;9.43;6.18;;;;;;;;;;2034149;29;20208;-55
2021/03/29 01:43:08;;;;;;;8.40;5.78;;;;;;;;;;2042424;29;20625;-54
2021/03/29 01:44:09;;;;;;;13.10;6.07;;;;;;;;;;2041277;29;20192;-59
2021/03/29 01:45:10;;;;;;;10.63;6.50;;;;;;;;;;2042065;29;20310;-57
2021/03/29 01:46:10;;;;;;;14.38;6.85;;;;;;;;;;2049065;28;20656;-55
2021/03/29 01:48:15;;;;;;;10.23;6.63;;;;;;;;;;2057986;28;20236;-60
2021/03/29 01:49:15;;;;;;;13.63;7.13;;;;;;;;;;2064518;28;20177;-59
2021/03/29 01:50:27;;;;;;;15.70;6.95;;;;;;;;;;2056882;28;20182;-59
2021/03/29 01:51:28;;;;;;;14.15;7.30;;;;;;;;;;2059162;28;20178;-59
2021/03/29 01:52:29;;;;;;;13.38;7.80;;;;;;;;;;2065704;28;20261;-59
2021/03/29 01:53:29;;;;;;;14.75;7.05;;;;;;;;;;2063132;28;20174;-62
2021/03/29 01:54:31;;;;;;;11.45;6.50;;;;;;;;;;2065320;28;20228;-61
2021/03/29 01:55:32;;;;;;;9.80;6.90;;;;;;;;;;2065846;28;20170;-62
2021/03/29 01:56:33;;;;;;;10.73;7.18;;;;;;;;;;2056360;28;20182;-59
2021/03/29 01:57:34;;;;;;;10.13;6.53;;;;;;;;;;2044599;28;20204;-59
2021/03/29 01:58:34;;;;;;;16.80;7.40;;;;;;;;;;2049610;28;20178;-61
2021/03/29 01:59:35;;;;;;;8.73;6.65;;;;;;;;;;2056153;28;20210;-62
2021/03/29 02:00:44;;;;;;;11.88;7.47;;;;;;;;;;2040744;29;20180;-61
2021/03/29 02:01:45;;;;;;;12.27;7.28;;;;;;;;;;2044028;28;20168;-60
2021/03/29 02:02:45;;;;;;;12.90;7.13;;;;;;;;;;2055785;28;20648;-61
2021/03/29 02:03:47;;;;;;;12.13;6.95;;;;;;;;;;2055493;28;20256;-63
2021/03/29 02:04:48;;;;;;;13.13;7.32;;;;;;;;;;2049195;29;20294;-61
2021/03/29 02:05:49;;;;;;;13.07;7.53;;;;;;;;;;2049706;28;20182;-61
2021/03/29 02:06:50;;;;;;;12.32;7.15;;;;;;;;;;2049638;28;20254;-65
2021/03/29 02:07:51;;;;;;;14.10;7.47;;;;;;;;;;2057052;28;20186;-61
2021/03/29 02:08:52;;;;;;;17.50;7.15;;;;;;;;;;2057585;28;20198;-60
2021/03/29 02:09:53;;;;;;;11.57;6.88;;;;;;;;;;2045580;28;20266;-60
2021/03/29 02:10:53;;;;;;;10.82;6.57;;;;;;;;;;2041800;29;20168;-61
2021/03/29 02:11:54;;;;;;;10.77;7.35;;;;;;;;;;2049533;29;20179;-59
2021/03/29 02:12:58;;;;;;;10.40;6.93;;;;;;;;;;2058371;28;20181;-61
2021/03/29 02:13:59;;;;;;;15.48;7.75;;;;;;;;;;2057375;28;20245;-56
2021/03/29 02:15:00;;;;;;;11.30;7.05;;;;;;;;;;2058434;28;20182;-58
2021/03/29 02:16:02;;;;;;;9.23;6.47;;;;;;;;;;2054932;28;20179;-60
2021/03/29 02:17:05;;;;;;;9.73;6.53;;;;;;;;;;2058241;28;20175;-58
2021/03/29 02:18:08;;;;;;;10.38;6.68;;;;;;;;;;2054092;28;20273;-58
2021/03/29 02:19:09;;;;;;;12.27;6.95;;;;;;;;;;2054691;28;20178;-54
2021/03/29 02:20:21;;;;;;;10.48;6.80;;;;;;;;;;2056091;28;20248;-54
2021/03/29 02:21:28;;;;;;;11.15;5.93;;;;;;;;;;2053877;28;20214;-56
2021/03/29 02:22:30;;;;;;;13.73;7.25;;;;;;;;;;2056895;28;20240;-60
2021/03/29 02:23:31;;;;;;;12.13;6.80;;;;;;;;;;2054938;28;20174;-57
2021/03/29 02:24:31;;;;;;;9.82;6.22;;;;;;;;;;2044918;28;20239;-61
2021/03/29 02:25:32;;;;;;;11.95;6.72;;;;;;;;;;2048829;29;20186;-60
2021/03/29 02:26:34;;;;;;;15.52;7.28;;;;;;;;;;2057737;28;20166;-60
2021/03/29 02:27:36;;;;;;;12.55;6.93;;;;;;;;;;2055323;28;20279;-59
2021/03/29 02:28:38;;;;;;;11.30;6.05;;;;;;;;;;2056379;28;20174;-58
2021/03/29 02:29:39;;;;;;;7.68;6.38;;;;;;;;;;2047391;29;20174;-60
2021/03/29 02:30:40;;;;;;;12.13;7.05;;;;;;;;;;2047692;29;20175;-56
2021/03/29 02:31:41;;;;;;;13.40;6.90;;;;;;;;;;2058090;28;20177;-58
2021/03/29 02:32:45;;;;;;;9.43;5.90;;;;;;;;;;2056604;28;20254;-58
2021/03/29 02:33:47;;;;;;;7.85;6.05;;;;;;;;;;2052674;28;20183;-62
2021/03/29 02:34:47;;;;;;;10.18;5.55;;;;;;;;;;2058120;28;20265;-60
2021/03/29 02:35:47;;;;;;;11.23;5.90;;;;;;;;;;2048667;29;20283;-62
2021/03/29 02:36:48;;;;;;;11.73;6.30;;;;;;;;;;2049086;28;20283;-57
2021/03/29 02:37:49;;;;;;;11.32;5.90;;;;;;;;;;2057837;28;20198;-59
2021/03/29 02:38:50;;;;;;;11.55;6.32;;;;;;;;;;2056558;28;20167;-63
2021/03/29 02:39:50;;;;;;;11.13;6.10;;;;;;;;;;2053642;28;20185;-55
2021/03/29 02:40:52;;;;;;;11.65;6.60;;;;;;;;;;2057621;28;20167;-60
2021/03/29 02:41:52;;;;;;;10.05;6.35;;;;;;;;;;2058022;28;20281;-58
2021/03/29 02:42:54;;;;;;;10.98;5.80;;;;;;;;;;2042450;29;20259;-61
2021/03/29 02:43:55;;;;;;;12.13;6.32;;;;;;;;;;2041072;29;20186;-62
2021/03/29 02:44:55;;;;;;;10.55;5.88;;;;;;;;;;2042251;28;20534;-59
2021/03/29 02:45:57;;;;;;;11.90;5.47;;;;;;;;;;2042968;29;20184;-60
2021/03/29 02:46:57;;;;;;;11.02;6.10;;;;;;;;;;2041476;29;20172;-58
2021/03/29 02:48:04;;;;;;;9.52;6.13;;;;;;;;;;2048843;28;20709;-59
2021/03/29 02:49:05;;;;;;;10.30;5.95;;;;;;;;;;2058140;28;20186;-60
2021/03/29 02:50:07;;;;;;;12.43;6.20;;;;;;;;;;2046126;29;20204;-59
2021/03/29 02:51:09;;;;;;;12.32;5.82;;;;;;;;;;2040814;29;22379;-60
2021/03/29 02:52:09;;;;;;;7.85;5.15;;;;;;;;;;2044249;28;20164;-61
2021/03/29 02:53:11;;;;;;;10.23;5.35;;;;;;;;;;2057789;28;20621;-63
2021/03/29 02:54:12;;;;;;;6.10;5.40;;;;;;;;;;2048762;29;20171;-59
2021/03/29 02:55:13;;;;;;;13.30;5.60;;;;;;;;;;2046330;28;20664;-62
2021/03/29 02:56:23;;;;;;;10.82;5.75;;;;;;;;;;2053590;28;20233;-59
2021/03/29 02:57:24;;;;;;;11.30;5.65;;;;;;;;;;2054449;28;20604;-60
2021/03/29 02:58:26;;;;;;;12.30;5.95;;;;;;;;;;2053330;28;20254;-60
2021/03/29 02:59:27;;;;;;;10.38;5.63;;;;;;;;;;2054654;28;20229;-63
2021/03/29 03:00:27;;;;;;;12.40;6.00;;;;;;;;;;2047023;28;20664;-62
2021/03/29 03:01:32;;;;;;;9.13;5.43;;;;;;;;;;2049055;29;20558;-60
2021/03/29 03:02:33;;;;;;;12.45;5.35;;;;;;;;;;2057421;28;20270;-61
2021/03/29 03:03:33;;;;;;;11.88;6.38;;;;;;;;;;2055514;28;20454;-62
2021/03/29 03:04:34;;;;;;;9.35;5.53;;;;;;;;;;2057109;28;20201;-63
2021/03/29 03:05:35;;;;;;;7.70;5.40;;;;;;;;;;2055256;28;20292;-62
2021/03/29 03:06:35;;;;;;;9.50;5.60;;;;;;;;;;2057896;28;20186;-64
2021/03/29 03:07:36;;;;;;;8.35;5.43;;;;;;;;;;2058057;28;20674;-60
2021/03/29 03:08:37;;;;;;;8.77;5.72;;;;;;;;;;2056064;28;20166;-60
2021/03/29 03:09:40;;;;;;;9.15;5.70;;;;;;;;;;2055624;28;20169;-61
2021/03/29 03:10:40;;;;;;;13.60;5.80;;;;;;;;;;2049704;28;20181;-60
2021/03/29 03:11:45;;;;;;;8.85;5.47;;;;;;;;;;2048549;29;20187;-61
2021/03/29 03:12:46;;;;;;;10.55;4.95;;;;;;;;;;2057277;28;20179;-62
2021/03/29 03:13:47;;;;;;;7.13;5.50;;;;;;;;;;2057576;28;20194;-62
2021/03/29 03:14:47;;;;;;;9.32;5.50;;;;;;;;;;2048456;29;20167;-61
2021/03/29 03:15:47;;;;;;;8.98;5.43;;;;;;;;;;2049792;29;20266;-59
2021/03/29 03:16:48;;;;;;;5.80;4.70;;;;;;;;;;2057403;28;20181;-60
2021/03/29 03:17:48;;;;;;;9.65;5.15;;;;;;;;;;2057080;28;20233;-60
2021/03/29 03:18:49;;;;;;;11.50;5.90;;;;;;;;;;2049354;29;20265;-60
2021/03/29 03:19:49;;;;;;;11.00;5.82;;;;;;;;;;2046330;29;20640;-63
2021/03/29 03:20:49;;;;;;;12.35;5.90;;;;;;;;;;2053858;28;20205;-62
2021/03/29 03:21:50;;;;;;;9.98;5.97;;;;;;;;;;2049403;29;20163;-59
2021/03/29 03:22:54;;;;;;;10.90;5.20;;;;;;;;;;2049983;29;20702;-60
2021/03/29 03:23:55;;;;;;;9.70;5.53;;;;;;;;;;2041193;29;20199;-62
2021/03/29 03:24:55;;;;;;;8.63;5.40;;;;;;;;;;2044867;28;20697;-60
2021/03/29 03:25:55;;;;;;;12.50;5.68;;;;;;;;;;2057846;28;20179;-62
2021/03/29 03:26:56;;;;;;;9.50;5.28;;;;;;;;;;2053478;28;20203;-59
2021/03/29 03:27:57;;;;;;;6.72;4.80;;;;;;;;;;2049760;29;20230;-60
2021/03/29 03:28:59;;;;;;;11.05;5.30;;;;;;;;;;2049915;29;20170;-57
2021/03/29 03:29:59;;;;;;;9.07;4.80;;;;;;;;;;2044990;29;20196;-61
2021/03/29 03:30:59;;;;;;;9.50;4.97;;;;;;;;;;2049402;29;20261;-62
2021/03/29 03:32:00;;;;;;;9.85;4.75;;;;;;;;;;2049462;29;20726;-60
2021/03/29 03:33:01;;;;;;;12.63;5.28;;;;;;;;;;2049144;28;20172;-63
2021/03/29 03:34:01;;;;;;;7.65;5.50;;;;;;;;;;2057504;28;20175;-58
2021/03/29 03:35:02;;;;;;;7.47;5.38;;;;;;;;;;2052992;28;20168;-60
2021/03/29 03:36:02;;;;;;;6.43;4.97;;;;;;;;;;2056435;28;20306;-60
2021/03/29 03:37:03;;;;;;;10.88;5.78;;;;;;;;;;2064062;28;20264;-62
2021/03/29 03:38:07;;;;;;;8.25;5.15;;;;;;;;;;2056808;28;20579;-58
2021/03/29 03:39:07;;;;;;;9.05;5.18;;;;;;;;;;2065858;28;20173;-62
2021/03/29 03:40:08;;;;;;;6.55;5.80;;;;;;;;;;2055651;28;20250;-64
2021/03/29 03:41:10;;;;;;;6.97;4.90;;;;;;;;;;2041293;29;20180;-60
2021/03/29 03:42:12;;;;;;;10.18;4.88;;;;;;;;;;2041508;29;20255;-60
2021/03/29 03:43:14;;;;;;;15.13;5.57;;;;;;;;;;2049532;29;20179;-57
2021/03/29 03:44:15;;;;;;;11.25;5.07;;;;;;;;;;2049622;28;20234;-60
2021/03/29 03:45:17;;;;;;;10.60;5.20;;;;;;;;;;2055823;28;20210;-60
2021/03/29 03:46:21;;;;;;;12.55;5.18;;;;;;;;;;2057540;28;20698;-60
2021/03/29 03:47:21;;;;;;;9.43;5.40;;;;;;;;;;2057536;28;20190;-59
2021/03/29 03:48:22;;;;;;;9.77;5.53;;;;;;;;;;2057722;28;20531;-61
2021/03/29 03:49:23;;;;;;;8.70;5.03;;;;;;;;;;2057776;28;20174;-61
2021/03/29 03:50:23;;;;;;;7.95;4.60;;;;;;;;;;2056370;28;20170;-60
2021/03/29 03:51:24;;;;;;;8.88;4.90;;;;;;;;;;2057726;28;20605;-60
2021/03/29 03:52:25;;;;;;;9.32;5.13;;;;;;;;;;2057434;28;20316;-60
2021/03/29 03:53:27;;;;;;;11.90;5.38;;;;;;;;;;2050396;28;20171;-61
2021/03/29 03:54:27;;;;;;;7.10;4.35;;;;;;;;;;2053808;28;20174;-58
2021/03/29 03:55:27;;;;;;;7.70;5.05;;;;;;;;;;2056473;28;20214;-59
2021/03/29 03:56:32;;;;;;;8.43;4.75;;;;;;;;;;2055585;28;20167;-62
2021/03/29 03:57:34;;;;;;;7.60;4.82;;;;;;;;;;2056078;28;20209;-61
2021/03/29 03:58:35;;;;;;;10.52;6.13;;;;;;;;;;2055343;28;20273;-63
2021/03/29 03:59:35;;;;;;;12.18;6.10;;;;;;;;;;2056324;28;20186;-62
2021/03/29 04:00:36;;;;;;;7.45;5.65;;;;;;;;;;2055161;28;20189;-61
2021/03/29 04:01:49;;;;;;;8.75;4.78;;;;;;;;;;2056647;28;20181;-62
2021/03/29 04:02:50;;;;;;;11.50;5.07;;;;;;;;;;2055471;28;20175;-61
2021/03/29 04:03:50;;;;;;;10.88;5.35;;;;;;;;;;2052546;28;20855;-62
2021/03/29 04:04:51;;;;;;;10.75;5.28;;;;;;;;;;2047510;28;20274;-60
2021/03/29 04:05:51;;;;;;;8.15;5.38;;;;;;;;;;2048161;28;20202;-61
2021/03/29 04:06:51;;;;;;;11.80;4.95;;;;;;;;;;2057320;28;20244;-60
2021/03/29 04:07:52;;;;;;;7.53;5.03;;;;;;;;;;2043515;28;20258;-58
2021/03/29 04:08:52;;;;;;;11.32;5.45;;;;;;;;;;2048843;29;20163;-59
2021/03/29 04:09:56;;;;;;;9.43;5.20;;;;;;;;;;2055291;28;20175;-57
2021/03/29 04:10:59;;;;;;;11.70;5.68;;;;;;;;;;2056364;28;20617;-60
2021/03/29 04:12:04;;;;;;;11.55;5.30;;;;;;;;;;2049521;28;20258;-60
2021/03/29 04:13:09;;;;;;;8.30;4.72;;;;;;;;;;2055067;28;20205;-60
2021/03/29 04:14:10;;;;;;;8.50;4.95;;;;;;;;;;2054627;28;20256;-62
2021/03/29 04:15:10;;;;;;;9.27;4.97;;;;;;;;;;2050479;29;20222;-63
2021/03/29 04:16:11;;;;;;;9.18;4.80;;;;;;;;;;2051027;29;20206;-59
2021/03/29 04:17:11;;;;;;;13.38;5.32;;;;;;;;;;2056292;28;20603;-59
2021/03/29 04:18:11;;;;;;;7.18;4.80;;;;;;;;;;2049717;28;22414;-58
2021/03/29 04:19:11;;;;;;;10.25;5.28;;;;;;;;;;2052974;28;20182;-58
2021/03/29 04:20:12;;;;;;;11.27;5.28;;;;;;;;;;2047069;29;20198;-59
2021/03/29 04:21:12;;;;;;;7.22;4.47;;;;;;;;;;2039305;29;20188;-61
2021/03/29 04:22:13;;;;;;;9.45;5.15;;;;;;;;;;2048067;28;20261;-57
2021/03/29 04:23:13;;;;;;;7.72;5.43;;;;;;;;;;2054469;28;20189;-59
2021/03/29 04:24:13;;;;;;;8.48;4.75;;;;;;;;;;2048715;28;20175;-58
2021/03/29 04:25:13;;;;;;;10.68;5.72;;;;;;;;;;2045236;28;20203;-58
2021/03/29 04:26:14;;;;;;;10.02;5.03;;;;;;;;;;2056721;28;20201;-58
2021/03/29 04:27:14;;;;;;;14.57;5.47;;;;;;;;;;2052934;28;20212;-63
2021/03/29 04:28:14;;;;;;;8.85;4.97;;;;;;;;;;2056997;28;20170;-64
2021/03/29 04:29:15;;;;;;;10.10;4.63;;;;;;;;;;2055966;28;20643;-62
2021/03/29 04:30:15;;;;;;;9.20;5.25;;;;;;;;;;2055926;28;20248;-62
2021/03/29 04:31:15;;;;;;;7.05;5.30;;;;;;;;;;2056542;28;20174;-59
2021/03/29 04:32:16;;;;;;;9.15;5.00;;;;;;;;;;2056424;28;20623;-62
2021/03/29 04:33:18;;;;;;;7.68;4.93;;;;;;;;;;2056924;28;20179;-60
2021/03/29 04:34:18;;;;;;;7.35;4.38;;;;;;;;;;2055858;28;20221;-62
2021/03/29 04:35:22;;;;;;;11.90;5.30;;;;;;;;;;2056113;28;20597;-62
2021/03/29 04:36:22;;;;;;;15.88;5.50;;;;;;;;;;2056472;28;20573;-60
2021/03/29 04:37:23;;;;;;;7.45;4.75;;;;;;;;;;2056073;28;20182;-62
2021/03/29 04:38:23;;;;;;;15.32;5.93;;;;;;;;;;2056468;28;20209;-61
2021/03/29 04:39:23;;;;;;;7.53;4.85;;;;;;;;;;2057442;28;20194;-62
2021/03/29 04:40:24;;;;;;;8.70;5.03;;;;;;;;;;2054221;28;20197;-63
2021/03/29 04:41:25;;;;;;;6.90;4.70;;;;;;;;;;2056491;28;20827;-63
2021/03/29 04:42:25;;;;;;;7.28;4.72;;;;;;;;;;2056938;28;20175;-62
2021/03/29 04:43:25;;;;;;;7.05;4.55;;;;;;;;;;2056962;28;20177;-60
2021/03/29 04:44:25;;;;;;;9.95;4.75;;;;;;;;;;2043902;29;20188;-64
2021/03/29 04:45:26;;;;;;;7.53;4.55;;;;;;;;;;2046759;29;20202;-60
2021/03/29 04:46:26;;;;;;;7.18;4.40;;;;;;;;;;2048225;28;20183;-62
2021/03/29 04:47:26;;;;;;;10.48;4.70;;;;;;;;;;2048340;28;20187;-62
2021/03/29 04:48:26;;;;;;;8.43;5.10;;;;;;;;;;2055349;28;20264;-60
2021/03/29 04:49:27;;;;;;;7.97;5.10;;;;;;;;;;2056309;28;20201;-62
2021/03/29 04:50:27;;;;;;;10.35;5.20;;;;;;;;;;2054334;28;20178;-62
2021/03/29 04:51:27;;;;;;;11.15;5.63;;;;;;;;;;2048184;29;20250;-60
2021/03/29 04:52:27;;;;;;;6.95;4.40;;;;;;;;;;2048128;29;20655;-57
2021/03/29 04:53:28;;;;;;;11.07;5.13;;;;;;;;;;2056005;28;20301;-63
2021/03/29 04:54:28;;;;;;;11.45;4.95;;;;;;;;;;2053070;28;20170;-62
2021/03/29 04:55:28;;;;;;;9.90;4.53;;;;;;;;;;2053394;28;20202;-61
2021/03/29 04:56:29;;;;;;;11.93;4.65;;;;;;;;;;2055865;28;20289;-55
2021/03/29 04:57:29;;;;;;;5.13;4.63;;;;;;;;;;2054291;28;20198;-60
2021/03/29 04:58:29;;;;;;;7.43;4.43;;;;;;;;;;2054367;28;20539;-60
2021/03/29 04:59:29;;;;;;;8.73;4.63;;;;;;;;;;2056475;28;20232;-62
2021/03/29 05:00:30;;;;;;;13.75;5.30;;;;;;;;;;2055729;28;20233;-60
2021/03/29 05:01:30;;;;;;;8.48;5.00;;;;;;;;;;2055115;28;20260;-61
2021/03/29 05:02:30;;;;;;;9.38;4.45;;;;;;;;;;2054634;28;20529;-63
2021/03/29 05:03:31;;;;;;;8.23;4.65;;;;;;;;;;2044967;29;20191;-62
2021/03/29 05:04:31;;;;;;;7.43;4.65;;;;;;;;;;2044771;29;20238;-62
2021/03/29 05:05:31;;;;;;;11.63;4.65;;;;;;;;;;2051569;28;20218;-63
2021/03/29 05:06:31;;;;;;;8.65;4.68;;;;;;;;;;2053612;28;20563;-59
2021/03/29 05:07:32;;;;;;;8.55;4.45;;;;;;;;;;2054621;28;20222;-60
2021/03/29 05:08:32;;;;;;;7.18;4.30;;;;;;;;;;2057030;28;20295;-61
2021/03/29 05:09:32;;;;;;;8.02;4.65;;;;;;;;;;2051713;28;20171;-64
2021/03/29 05:10:35;;;;;;;6.90;5.00;;;;;;;;;;2054239;28;20170;-64
2021/03/29 05:11:51;;;;;;;9.50;4.57;;;;;;;;;;2051767;28;20170;-65
2021/03/29 05:12:52;;;;;;;11.63;4.45;;;;;;;;;;2056980;28;20543;-63
2021/03/29 05:13:52;;;;;;;8.75;4.65;;;;;;;;;;2055541;28;20182;-64
2021/03/29 05:14:52;;;;;;;8.65;4.85;;;;;;;;;;2056252;28;20838;-65
2021/03/29 05:15:53;;;;;;;10.90;4.70;;;;;;;;;;2049363;28;20258;-64
2021/03/29 05:16:53;;;;;;;7.50;5.25;;;;;;;;;;2052853;28;20663;-65
2021/03/29 05:17:53;;;;;;;8.05;4.22;;;;;;;;;;2053242;28;20190;-65
2021/03/29 05:18:53;;;;;;;8.82;4.95;;;;;;;;;;2050297;28;20195;-67
2021/03/29 05:19:53;;;;;;;8.85;5.03;;;;;;;;;;2057338;28;20178;-65
2021/03/29 05:20:55;;;;;;;7.93;4.50;;;;;;;;;;2056675;28;20213;-66
2021/03/29 05:21:55;;;;;;;13.35;5.38;;;;;;;;;;2055879;28;20185;-64
2021/03/29 05:22:55;;;;;;;7.43;4.63;;;;;;;;;;2052865;28;21907;-65
2021/03/29 05:23:55;;;;;;;11.15;4.97;;;;;;;;;;2056014;28;20177;-65
2021/03/29 05:24:56;;;;;;;7.88;4.47;;;;;;;;;;2054407;28;20186;-63
2021/03/29 05:25:56;;;;;;;9.65;4.75;;;;;;;;;;2055383;28;20209;-63
2021/03/29 05:26:56;;;;;;;9.48;5.00;;;;;;;;;;2056138;28;20189;-58
2021/03/29 05:27:57;;;;;;;11.43;5.13;;;;;;;;;;2054660;28;20189;-61
2021/03/29 05:28:57;;;;;;;11.70;4.80;;;;;;;;;;2053224;28;20565;-62
2021/03/29 05:29:57;;;;;;;14.02;4.70;;;;;;;;;;2056698;28;20703;-60
2021/03/29 05:30:57;;;;;;;7.85;4.47;;;;;;;;;;2047957;28;20179;-58
2021/03/29 05:31:58;;;;;;;13.40;5.15;;;;;;;;;;2048258;29;20258;-57
2021/03/29 05:32:58;;;;;;;8.10;4.60;;;;;;;;;;2051833;28;20175;-60
2021/03/29 05:33:58;;;;;;;9.60;4.97;;;;;;;;;;2047132;29;20190;-61
2021/03/29 05:35:02;;;;;;;6.30;4.72;;;;;;;;;;2047921;29;20283;-64
2021/03/29 05:36:02;;;;;;;7.43;4.70;;;;;;;;;;2045552;29;20179;-58
2021/03/29 05:37:02;;;;;;;10.68;4.82;;;;;;;;;;2047923;29;20608;-60
2021/03/29 05:38:03;;;;;;;8.13;4.60;;;;;;;;;;2054910;28;20292;-66
2021/03/29 05:39:04;;;;;;;13.07;5.80;;;;;;;;;;2047403;28;20645;-66
2021/03/29 05:40:05;;;;;;;11.57;4.57;;;;;;;;;;2046104;28;20218;-63
2021/03/29 05:41:05;;;;;;;7.18;4.95;;;;;;;;;;2054806;28;20170;-59
2021/03/29 05:42:06;;;;;;;10.02;4.80;;;;;;;;;;2046509;29;20682;-63
2021/03/29 05:43:07;;;;;;;6.60;4.50;;;;;;;;;;2047082;28;20201;-58
2021/03/29 05:44:08;;;;;;;7.82;5.10;;;;;;;;;;2046957;29;20171;-62
2021/03/29 05:45:09;;;;;;;6.95;4.80;;;;;;;;;;2047322;29;20187;-56
2021/03/29 05:46:09;;;;;;;9.00;4.85;;;;;;;;;;2054547;28;21261;-63
2021/03/29 05:47:09;;;;;;;8.63;5.03;;;;;;;;;;2055610;28;20277;-60
2021/03/29 05:48:10;;;;;;;12.13;5.50;;;;;;;;;;2055461;28;20202;-61
2021/03/29 05:49:10;;;;;;;8.57;5.20;;;;;;;;;;2056320;28;20185;-54
2021/03/29 05:50:12;;;;;;;8.80;4.72;;;;;;;;;;2055062;28;20213;-61
2021/03/29 05:51:12;;;;;;;8.05;4.72;;;;;;;;;;2055597;28;20170;-53
2021/03/29 05:52:12;;;;;;;8.10;4.70;;;;;;;;;;2046669;29;20960;-60
2021/03/29 05:53:12;;;;;;;9.48;4.70;;;;;;;;;;2043769;29;20270;-59
2021/03/29 05:54:13;;;;;;;7.00;4.90;;;;;;;;;;2055933;28;20232;-62
2021/03/29 05:55:22;;;;;;;6.90;4.88;;;;;;;;;;2056435;28;20646;-64
2021/03/29 05:56:22;;;;;;;10.95;4.60;;;;;;;;;;2056089;28;20186;-57
2021/03/29 05:57:23;;;;;;;6.00;4.55;;;;;;;;;;2046942;28;20264;-59
2021/03/29 05:59:34;;;;;;;5.88;4.85;;;;;;;;;;2052042;28;20221;-56
2021/03/29 06:00:41;;;;;;;8.70;4.57;;;;;;;;;;2053891;28;20265;-56
2021/03/29 06:01:43;;;;;;;10.40;4.90;;;;;;;;;;2056069;28;20183;-57
2021/03/29 06:02:43;;;;;;;11.75;4.57;;;;;;;;;;2056090;28;20166;-61
2021/03/29 06:03:43;;;;;;;7.35;4.32;;;;;;;;;;2052726;28;20666;-60
2021/03/29 06:04:46;;;;;;;4.53;3.92;;;;;;;;;;2056739;28;20185;-53
2021/03/29 06:05:48;;;;;;;9.40;4.60;;;;;;;;;;2056117;28;20751;-57
2021/03/29 06:06:48;;;;;;;5.28;4.72;;;;;;;;;;2058452;28;20654;-56
2021/03/29 06:07:56;;;;;;;5.38;4.45;;;;;;;;;;2048249;28;20202;-64
2021/03/29 06:08:56;;;;;;;9.82;5.13;;;;;;;;;;2042832;29;20164;-66